Time;durP1;ratioP1;P1;durP2;ratioP2;P2;SDS_P1;SDS_P2;PMS_P1;PMS_P2;Temp;Humidity;BMP_temperature;BMP_pressure;BME280_temperature;BME280_humidity;BME280_pressure;Samples;Min_cycle;Max_cycle;Signal;HPM_P1;HPM_P2
2022/10/03 00:01:20;;;;;;;13.23;4.07;;;7.50;99.90;;;;;;5012591;28;20214;-51
2022/10/03 00:03:58;;;;;;;11.80;4.07;;;7.50;99.90;;;;;;5009798;28;20206;-51
2022/10/03 00:06:43;;;;;;;29.13;11.67;;;7.50;99.90;;;;;;5012371;28;20210;-51
2022/10/03 00:09:25;;;;;;;11.67;5.43;;;7.50;99.90;;;;;;5007407;28;20210;-51
2022/10/03 00:12:10;;;;;;;8.97;4.33;;;7.50;99.90;;;;;;5011035;28;20309;-51
2022/10/03 00:14:46;;;;;;;13.30;6.20;;;7.40;99.90;;;;;;5010755;28;20282;-50
2022/10/03 00:17:20;;;;;;;10.13;3.90;;;7.40;99.90;;;;;;5009106;28;20324;-50
2022/10/03 00:19:59;;;;;;;41.57;27.80;;;7.40;99.90;;;;;;5011319;28;20318;-51
2022/10/03 00:22:37;;;;;;;10.43;3.50;;;7.40;99.90;;;;;;5006357;28;20236;-51
2022/10/03 00:25:28;;;;;;;14.07;5.30;;;7.30;99.90;;;;;;5006180;28;20212;-51
2022/10/03 00:28:17;;;;;;;10.13;3.50;;;7.30;99.90;;;;;;5007826;28;20586;-51
2022/10/03 00:31:08;;;;;;;9.87;4.60;;;7.30;99.90;;;;;;5010308;28;20289;-51
2022/10/03 00:33:51;;;;;;;10.27;5.83;;;7.30;99.90;;;;;;5004850;28;20261;-51
2022/10/03 00:36:27;;;;;;;8.73;3.70;;;7.30;99.90;;;;;;5010439;28;20232;-51
2022/10/03 00:39:21;;;;;;;37.67;16.07;;;7.30;99.90;;;;;;5004751;28;20309;-51
2022/10/03 00:42:28;;;;;;;188.37;90.70;;;7.30;99.90;;;;;;5009168;28;20276;-51
2022/10/03 00:45:28;;;;;;;6.87;3.20;;;7.30;99.90;;;;;;5008499;28;20209;-51
2022/10/03 00:48:17;;;;;;;13.97;4.73;;;7.40;99.90;;;;;;5008726;28;20210;-52
2022/10/03 00:51:13;;;;;;;18.37;9.67;;;7.40;99.90;;;;;;5009523;28;20203;-51
2022/10/03 00:53:53;;;;;;;15.50;5.13;;;7.40;99.90;;;;;;5006304;28;20246;-51
2022/10/03 00:56:40;;;;;;;13.27;10.80;;;7.30;99.90;;;;;;5010180;28;20255;-51
2022/10/03 00:59:22;;;;;;;28.97;12.07;;;7.40;99.90;;;;;;5007156;28;20313;-51
2022/10/03 01:01:52;;;;;;;14.47;6.07;;;7.30;99.90;;;;;;5007820;28;20312;-51
2022/10/03 01:04:41;;;;;;;11.90;4.07;;;7.20;99.90;;;;;;5010459;28;20211;-51
2022/10/03 01:07:29;;;;;;;10.70;3.90;;;7.20;99.90;;;;;;5007834;28;20210;-51
2022/10/03 01:10:11;;;;;;;8.07;3.27;;;7.20;99.90;;;;;;5009598;28;20308;-51
2022/10/03 01:13:00;;;;;;;9.37;8.33;;;7.20;99.90;;;;;;5008891;28;20229;-51
2022/10/03 01:15:38;;;;;;;7.13;3.10;;;7.30;99.90;;;;;;5009277;28;20207;-51
2022/10/03 01:18:18;;;;;;;49.33;15.73;;;7.20;99.90;;;;;;5009947;28;20299;-52
2022/10/03 01:20:56;;;;;;;9.90;3.63;;;7.20;99.90;;;;;;5008889;28;20325;-51
2022/10/03 01:24:02;;;;;;;24.13;11.67;;;7.20;99.90;;;;;;5008830;28;20336;-51
2022/10/03 01:26:58;;;;;;;10.70;7.37;;;7.20;99.90;;;;;;5009833;28;20289;-51
2022/10/03 01:32:30;;;;;;;21.50;8.37;;;7.10;99.90;;;;;;5008727;28;20313;-51
2022/10/03 01:35:11;;;;;;;13.50;7.60;;;7.10;99.90;;;;;;5005743;28;20242;-51
2022/10/03 01:37:50;;;;;;;8.83;3.80;;;7.10;99.90;;;;;;5008549;28;20297;-51
2022/10/03 01:40:26;;;;;;;10.97;3.67;;;7.10;99.90;;;;;;5005615;28;20292;-50
2022/10/03 01:43:19;;;;;;;19.17;5.53;;;7.10;99.90;;;;;;5007413;28;20295;-50
2022/10/03 01:45:58;;;;;;;9.93;7.07;;;7.10;99.90;;;;;;5009410;28;20206;-51
2022/10/03 01:48:36;;;;;;;11.30;3.87;;;7.10;99.90;;;;;;5009232;28;20205;-50
2022/10/03 01:51:10;;;;;;;15.60;5.00;;;7.10;99.90;;;;;;5008661;28;20689;-51
2022/10/03 01:54:01;;;;;;;72.60;25.70;;;7.00;99.90;;;;;;5008397;28;20272;-51
2022/10/03 01:56:36;;;;;;;12.93;3.70;;;7.10;99.90;;;;;;5005026;28;20303;-51
2022/10/03 01:59:09;;;;;;;12.60;4.13;;;7.00;99.90;;;;;;5008430;28;20291;-51
2022/10/03 02:01:48;;;;;;;15.20;6.53;;;7.00;99.90;;;;;;5007853;28;20314;-51
2022/10/03 02:04:29;;;;;;;10.57;4.80;;;7.00;99.90;;;;;;5008721;28;20206;-51
2022/10/03 02:07:05;;;;;;;8.77;3.90;;;6.90;99.90;;;;;;5006974;28;20653;-51
2022/10/03 02:09:40;;;;;;;14.27;4.23;;;6.90;99.90;;;;;;5007342;28;20211;-51
2022/10/03 02:12:13;;;;;;;58.93;19.70;;;6.90;99.90;;;;;;5007684;28;20323;-51
2022/10/03 02:14:51;;;;;;;10.87;4.20;;;6.90;99.90;;;;;;5007793;28;20311;-51
2022/10/03 02:17:29;;;;;;;18.00;8.17;;;6.90;99.90;;;;;;5008769;28;20207;-51
2022/10/03 02:20:06;;;;;;;14.30;7.47;;;6.90;99.90;;;;;;5009178;28;20236;-51
2022/10/03 02:22:42;;;;;;;11.47;4.70;;;6.80;99.90;;;;;;5003063;28;20323;-51
2022/10/03 02:25:23;;;;;;;29.27;14.33;;;6.90;99.90;;;;;;5007654;28;20763;-51
2022/10/03 02:28:25;;;;;;;11.80;3.70;;;6.80;99.90;;;;;;5007451;28;20653;-51
2022/10/03 02:31:20;;;;;;;8.23;3.47;;;6.80;99.90;;;;;;5007889;28;20206;-51
2022/10/03 02:34:31;;;;;;;10.57;3.23;;;6.80;99.90;;;;;;4999783;28;20230;-51
2022/10/03 02:37:32;;;;;;;12.50;7.73;;;6.80;99.90;;;;;;5006976;28;20599;-51
2022/10/03 02:40:44;;;;;;;7.70;3.83;;;6.80;99.90;;;;;;5007112;28;20826;-51
2022/10/03 02:43:42;;;;;;;9.80;5.77;;;6.80;99.90;;;;;;5007290;28;20275;-51
2022/10/03 02:46:52;;;;;;;7.33;4.23;;;7.00;99.90;;;;;;5008324;28;20201;-51
2022/10/03 02:49:51;;;;;;;12.83;3.87;;;7.00;99.90;;;;;;4968979;28;20200;-50
2022/10/03 02:52:56;;;;;;;8.23;3.57;;;7.10;99.90;;;;;;5007666;28;20235;-51
2022/10/03 02:55:42;;;;;;;8.37;3.30;;;7.10;99.90;;;;;;5007506;28;20888;-51
2022/10/03 02:58:42;;;;;;;21.03;18.97;;;7.20;99.90;;;;;;5005038;28;20296;-50
2022/10/03 03:01:42;;;;;;;17.77;11.97;;;7.20;99.90;;;;;;5007436;28;20302;-51
2022/10/03 03:04:40;;;;;;;6.80;3.20;;;7.20;99.90;;;;;;5006214;28;20214;-51
2022/10/03 03:07:37;;;;;;;8.70;3.87;;;7.30;99.90;;;;;;5006932;28;20293;-51
2022/10/03 03:10:33;;;;;;;16.23;10.50;;;7.40;99.90;;;;;;5006146;28;20221;-51
2022/10/03 03:13:27;;;;;;;14.63;7.10;;;7.40;99.90;;;;;;5002238;28;20230;-51
2022/10/03 03:16:28;;;;;;;12.90;6.93;;;7.40;99.90;;;;;;5006645;28;20230;-51
2022/10/03 03:19:11;;;;;;;13.40;9.70;;;7.40;99.90;;;;;;5005221;28;20220;-51
2022/10/03 03:21:49;;;;;;;13.50;8.40;;;7.50;99.90;;;;;;5005978;28;20313;-51
2022/10/03 03:24:40;;;;;;;9.93;3.70;;;7.50;99.90;;;;;;5003461;28;20234;-51
2022/10/03 03:27:27;;;;;;;13.00;7.10;;;7.60;99.90;;;;;;5005795;28;20220;-51
2022/10/03 03:30:05;;;;;;;4.27;3.60;;;7.60;99.90;;;;;;5002562;28;20238;-51
2022/10/03 03:32:46;;;;;;;10.57;3.97;;;7.60;99.90;;;;;;5003268;28;20341;-51
2022/10/03 03:35:27;;;;;;;12.13;4.93;;;7.70;99.90;;;;;;5007074;28;20226;-51
2022/10/03 03:38:03;;;;;;;8.97;2.93;;;7.60;99.90;;;;;;5007413;28;20199;-51
2022/10/03 03:40:43;;;;;;;6.13;3.03;;;7.60;99.90;;;;;;5007843;28;20323;-51
2022/10/03 03:43:27;;;;;;;11.27;3.60;;;7.70;99.90;;;;;;5007210;28;20337;-51
2022/10/03 03:46:05;;;;;;;8.93;2.97;;;7.70;99.90;;;;;;5007097;28;20233;-51
2022/10/03 03:48:50;;;;;;;5.57;2.97;;;7.70;99.90;;;;;;5006626;28;20202;-51
2022/10/03 03:51:32;;;;;;;27.97;18.73;;;7.80;99.90;;;;;;5007540;28;20305;-52
2022/10/03 03:54:36;;;;;;;6.00;3.13;;;7.80;99.90;;;;;;5004351;28;20761;-51
2022/10/03 03:57:46;;;;;;;8.70;3.87;;;7.80;99.90;;;;;;5002530;28;20207;-50
2022/10/03 04:00:17;;;;;;;9.77;6.10;;;7.80;99.90;;;;;;4983463;28;20305;-51
2022/10/03 04:03:06;;;;;;;9.93;6.40;;;7.80;99.90;;;;;;4983586;28;20236;-51
2022/10/03 04:05:51;;;;;;;8.60;3.33;;;7.80;99.90;;;;;;4997789;28;20684;-51
2022/10/03 04:08:45;;;;;;;30.00;14.60;;;7.80;99.90;;;;;;5007003;28;20214;-51
2022/10/03 04:11:24;;;;;;;9.70;3.77;;;7.80;99.90;;;;;;5004295;28;20211;-51
2022/10/03 04:14:26;;;;;;;8.90;4.00;;;7.80;99.90;;;;;;5006158;28;20676;-51
2022/10/03 04:20:16;;;;;;;5.87;3.67;;;7.80;99.90;;;;;;5005976;28;20296;-51
2022/10/03 04:23:00;;;;;;;11.43;6.23;;;7.80;99.90;;;;;;5005627;28;20249;-51
2022/10/03 04:25:53;;;;;;;14.97;8.47;;;7.80;99.90;;;;;;5007295;28;20203;-50
2022/10/03 04:28:39;;;;;;;21.77;12.30;;;7.90;99.90;;;;;;5001782;28;20213;-51
2022/10/03 04:31:26;;;;;;;9.83;4.60;;;8.00;99.90;;;;;;5004292;28;20303;-51
2022/10/03 04:34:10;;;;;;;21.80;9.37;;;7.90;99.90;;;;;;5003584;28;20297;-51
2022/10/03 04:37:23;;;;;;;10.23;4.00;;;7.90;99.90;;;;;;5010049;28;20209;-51
2022/10/03 04:40:02;;;;;;;15.87;11.03;;;8.00;99.90;;;;;;4985945;28;20762;-50
2022/10/03 04:42:45;;;;;;;9.40;7.90;;;8.00;99.90;;;;;;5010377;28;20305;-51
2022/10/03 04:45:27;;;;;;;6.10;4.27;;;8.00;99.90;;;;;;5009083;28;20298;-51
2022/10/03 04:48:05;;;;;;;12.60;3.80;;;8.00;99.90;;;;;;5009648;28;20237;-51
2022/10/03 04:50:40;;;;;;;10.97;6.83;;;8.00;99.90;;;;;;5010081;28;20290;-51
2022/10/03 04:53:23;;;;;;;19.60;12.13;;;8.00;99.90;;;;;;5009929;28;20340;-51
2022/10/03 04:55:56;;;;;;;22.27;18.77;;;8.00;99.90;;;;;;5007619;28;20228;-51
2022/10/03 04:58:36;;;;;;;12.57;8.40;;;8.00;99.90;;;;;;5010205;28;20209;-52
2022/10/03 05:01:14;;;;;;;13.87;8.00;;;7.90;99.90;;;;;;5007406;28;20211;-51
2022/10/03 05:03:49;;;;;;;28.70;23.30;;;7.90;99.90;;;;;;5009219;28;20294;-51
2022/10/03 05:06:42;;;;;;;9.60;7.40;;;7.90;99.90;;;;;;5010230;28;20301;-51
2022/10/03 05:09:22;;;;;;;7.33;3.83;;;7.90;99.90;;;;;;5006093;28;20277;-51
2022/10/03 05:11:59;;;;;;;6.63;3.77;;;7.90;99.90;;;;;;5006233;28;20226;-51
2022/10/03 05:14:49;;;;;;;13.60;4.47;;;7.80;99.90;;;;;;5010112;28;20325;-51
2022/10/03 05:17:24;;;;;;;9.20;5.80;;;7.80;99.90;;;;;;5004957;28;20208;-51
2022/10/03 05:20:17;;;;;;;8.43;3.80;;;7.80;99.90;;;;;;5005071;28;20297;-52
2022/10/03 05:22:54;;;;;;;6.60;5.33;;;7.90;99.90;;;;;;5003871;28;20234;-51
2022/10/03 05:25:34;;;;;;;9.83;3.50;;;7.90;99.90;;;;;;5008537;28;20209;-51
2022/10/03 05:28:15;;;;;;;15.93;10.70;;;8.00;99.90;;;;;;5004923;28;20203;-51
2022/10/03 05:30:52;;;;;;;14.37;9.70;;;8.00;99.90;;;;;;5010778;28;20213;-52
2022/10/03 05:33:29;;;;;;;13.67;9.90;;;8.00;99.90;;;;;;5007918;28;20805;-52
2022/10/03 05:36:11;;;;;;;31.40;19.67;;;8.10;99.90;;;;;;5009519;28;20239;-52
2022/10/03 05:39:01;;;;;;;11.57;4.10;;;8.20;99.90;;;;;;5006679;28;20207;-51
2022/10/03 05:41:31;;;;;;;31.57;21.07;;;8.20;99.90;;;;;;5008334;28;20213;-54
2022/10/03 05:44:05;;;;;;;16.17;8.87;;;8.20;99.90;;;;;;5008654;28;20668;-54
2022/10/03 05:46:47;;;;;;;7.87;4.80;;;8.20;99.90;;;;;;5009512;28;20667;-54
2022/10/03 05:49:41;;;;;;;32.17;28.53;;;8.30;99.90;;;;;;5008204;28;20211;-53
2022/10/03 05:52:27;;;;;;;12.07;8.37;;;8.30;99.90;;;;;;5006266;28;20603;-52
2022/10/03 05:55:12;;;;;;;12.67;7.17;;;8.40;99.90;;;;;;5007781;28;20290;-51
2022/10/03 05:58:09;;;;;;;9.13;5.83;;;8.40;99.90;;;;;;5007623;28;20209;-54
2022/10/03 06:01:04;;;;;;;10.97;4.90;;;8.30;99.90;;;;;;5009582;28;20214;-53
2022/10/03 06:04:04;;;;;;;55.50;46.10;;;8.40;99.90;;;;;;5004207;28;20233;-53
2022/10/03 06:06:47;;;;;;;6.60;4.47;;;8.40;99.90;;;;;;5004234;28;20277;-54
2022/10/03 06:09:52;;;;;;;48.93;41.27;;;8.40;99.90;;;;;;5006834;28;20303;-52
2022/10/03 06:12:30;;;;;;;23.93;19.63;;;8.50;99.90;;;;;;5007907;28;20309;-52
2022/10/03 06:15:30;;;;;;;11.10;5.27;;;8.60;99.90;;;;;;5008057;28;20218;-51
2022/10/03 06:18:07;;;;;;;10.03;5.63;;;8.70;99.90;;;;;;4994782;28;20332;-51
2022/10/03 06:21:22;;;;;;;15.90;9.13;;;8.80;99.90;;;;;;4989453;28;20246;-51
2022/10/03 06:24:24;;;;;;;90.57;77.03;;;8.90;99.90;;;;;;5005627;28;20282;-51
2022/10/03 06:27:24;;;;;;;7.23;6.23;;;8.90;99.90;;;;;;5006386;28;20256;-52
2022/10/03 06:30:20;;;;;;;14.17;8.57;;;8.90;99.90;;;;;;5003566;28;20672;-52
2022/10/03 06:33:18;;;;;;;11.03;7.27;;;9.10;99.90;;;;;;5003273;28;20234;-51
2022/10/03 06:36:08;;;;;;;32.00;18.87;;;9.20;99.90;;;;;;5004763;28;20238;-52
2022/10/03 06:39:10;;;;;;;195.47;129.80;;;9.60;99.90;;;;;;5007376;28;20775;-52
2022/10/03 06:42:17;;;;;;;94.87;66.30;;;10.10;99.90;;;;;;4999613;28;20264;-51
2022/10/03 06:45:14;;;;;;;289.00;184.77;;;10.40;99.90;;;;;;4964012;28;20291;-51
2022/10/03 06:47:59;;;;;;;310.53;204.63;;;10.50;99.90;;;;;;5007557;28;20221;-52
2022/10/03 06:50:39;;;;;;;326.77;190.20;;;10.50;99.90;;;;;;5007228;28;20683;-51
2022/10/03 06:53:39;;;;;;;164.43;119.03;;;10.30;99.90;;;;;;5003975;28;20316;-51
2022/10/03 06:56:41;;;;;;;135.93;97.80;;;10.10;99.90;;;;;;4985726;28;20329;-51
2022/10/03 06:59:50;;;;;;;191.87;119.17;;;10.00;99.90;;;;;;5008204;28;20213;-51
2022/10/03 07:03:02;;;;;;;234.00;151.23;;;10.20;99.90;;;;;;5001295;28;21023;-52
2022/10/03 07:06:14;;;;;;;182.20;90.87;;;10.40;99.90;;;;;;5005024;28;20681;-52
2022/10/03 07:09:11;;;;;;;322.97;171.53;;;10.80;99.90;;;;;;5008039;28;20286;-51
2022/10/03 07:12:36;;;;;;;392.17;263.33;;;11.00;99.90;;;;;;4992114;28;20223;-51
2022/10/03 07:15:39;;;;;;;254.17;153.37;;;11.10;99.90;;;;;;4912610;28;20391;-52
2022/10/03 07:19:00;;;;;;;296.23;185.03;;;10.90;99.90;;;;;;4999019;28;20234;-51
2022/10/03 07:22:01;;;;;;;181.70;115.27;;;10.80;99.90;;;;;;4996194;28;20297;-52
2022/10/03 07:24:53;;;;;;;271.77;158.13;;;10.80;99.90;;;;;;4992484;28;20297;-51
2022/10/03 07:27:47;;;;;;;284.17;185.53;;;11.10;99.90;;;;;;5005414;28;20206;-52
2022/10/03 07:30:20;;;;;;;282.20;187.23;;;11.10;99.90;;;;;;5006260;28;20582;-52
2022/10/03 07:33:45;;;;;;;244.27;125.53;;;11.10;99.90;;;;;;5005086;28;20237;-51
2022/10/03 07:40:16;;;;;;;397.93;257.40;;;11.40;99.90;;;;;;5005087;28;20293;-51
2022/10/03 07:43:10;;;;;;;327.27;196.30;;;11.50;99.90;;;;;;5007913;28;20241;-51
2022/10/03 07:45:41;;;;;;;196.87;121.47;;;11.40;99.90;;;;;;4997288;28;20710;-51
2022/10/03 07:48:38;;;;;;;147.33;96.73;;;11.60;99.90;;;;;;5008901;28;20199;-51
2022/10/03 07:51:30;;;;;;;277.33;192.20;;;11.70;99.90;;;;;;5002744;28;20211;-51
2022/10/03 07:54:32;;;;;;;197.63;109.30;;;11.70;99.90;;;;;;5003265;28;20207;-51
2022/10/03 07:57:29;;;;;;;134.13;70.73;;;11.60;99.90;;;;;;5000219;28;20237;-50
2022/10/03 08:00:23;;;;;;;179.47;113.07;;;11.60;99.90;;;;;;5005887;28;20206;-51
2022/10/03 08:03:44;;;;;;;51.77;27.30;;;11.60;99.90;;;;;;5009644;28;20234;-51
2022/10/03 08:06:31;;;;;;;138.43;121.70;;;11.60;99.90;;;;;;5006714;28;20207;-51
2022/10/03 08:09:27;;;;;;;136.07;73.27;;;11.70;99.90;;;;;;5011285;28;20199;-51
2022/10/03 08:12:41;;;;;;;192.57;125.03;;;11.90;99.90;;;;;;5010799;28;20342;-51
2022/10/03 08:15:19;;;;;;;120.77;64.50;;;11.80;99.90;;;;;;5010615;28;20211;-51
2022/10/03 08:18:32;;;;;;;82.23;56.03;;;11.70;99.90;;;;;;5003817;28;20690;-51
2022/10/03 08:21:03;;;;;;;115.50;77.33;;;11.80;99.90;;;;;;5010292;28;20740;-51
2022/10/03 08:24:13;;;;;;;228.67;165.83;;;11.80;99.90;;;;;;5009565;28;20250;-51
2022/10/03 08:27:00;;;;;;;103.97;61.23;;;11.90;99.90;;;;;;5010701;28;20593;-51
2022/10/03 08:30:01;;;;;;;198.50;137.30;;;12.10;99.90;;;;;;5011769;28;20202;-51
2022/10/03 08:32:53;;;;;;;137.20;96.40;;;12.10;99.90;;;;;;5011262;28;20226;-51
2022/10/03 08:35:34;;;;;;;179.17;121.40;;;12.30;99.90;;;;;;5012154;28;20207;-51
2022/10/03 08:38:32;;;;;;;286.90;185.70;;;12.50;99.90;;;;;;4998733;28;20700;-51
2022/10/03 08:41:36;;;;;;;236.00;158.47;;;12.60;99.90;;;;;;5009087;28;20301;-51
2022/10/03 08:44:35;;;;;;;212.53;120.50;;;12.70;99.90;;;;;;5005490;28;20210;-50
2022/10/03 08:47:26;;;;;;;151.37;100.57;;;12.80;99.90;;;;;;5011583;28;20211;-51
2022/10/03 08:50:32;;;;;;;213.00;144.60;;;12.90;99.90;;;;;;4985689;28;20294;-51
2022/10/03 08:53:32;;;;;;;223.07;125.80;;;13.00;99.90;;;;;;5010961;28;20227;-51
2022/10/03 08:56:06;;;;;;;171.50;85.63;;;13.20;99.90;;;;;;5001868;28;20225;-51
2022/10/03 08:59:15;;;;;;;270.63;173.83;;;13.30;99.90;;;;;;5011350;28;20232;-51
2022/10/03 09:02:23;;;;;;;78.07;41.63;;;13.40;99.90;;;;;;5010343;28;20227;-51
2022/10/03 09:05:27;;;;;;;327.07;224.07;;;13.50;99.90;;;;;;5011442;28;20242;-52
2022/10/03 09:08:27;;;;;;;263.83;207.50;;;13.70;99.90;;;;;;5011256;28;20758;-51
2022/10/03 09:11:34;;;;;;;355.87;247.37;;;13.80;99.90;;;;;;5001749;28;20784;-50
2022/10/03 09:14:33;;;;;;;265.33;170.03;;;13.80;99.90;;;;;;4998857;28;20237;-52
2022/10/03 09:17:22;;;;;;;412.47;261.33;;;13.90;99.90;;;;;;5010928;28;20238;-51
2022/10/03 09:20:25;;;;;;;267.77;150.80;;;13.80;99.90;;;;;;4988226;28;20301;-50
2022/10/03 09:23:26;;;;;;;294.67;210.77;;;13.80;99.90;;;;;;5001762;28;20230;-51
2022/10/03 09:26:24;;;;;;;272.57;175.67;;;13.80;99.90;;;;;;4999519;28;20210;-51
2022/10/03 09:29:12;;;;;;;77.90;46.40;;;13.80;99.90;;;;;;5010474;28;20366;-51
2022/10/03 09:32:11;;;;;;;232.90;130.50;;;13.90;99.90;;;;;;5006063;28;20227;-51
2022/10/03 09:35:06;;;;;;;249.20;170.33;;;14.10;99.90;;;;;;4994184;28;20299;-51
2022/10/03 09:37:49;;;;;;;296.47;191.97;;;14.10;99.90;;;;;;5010601;28;20237;-50
2022/10/03 09:41:00;;;;;;;161.13;83.13;;;14.30;99.90;;;;;;5003891;28;20290;-51
2022/10/03 09:44:12;;;;;;;286.13;172.77;;;14.50;99.90;;;;;;4999720;28;20980;-51
2022/10/03 09:47:22;;;;;;;254.83;162.20;;;14.50;99.90;;;;;;4983023;28;20293;-51
2022/10/03 09:50:22;;;;;;;162.83;104.70;;;14.40;99.90;;;;;;5004828;28;20247;-51
2022/10/03 09:53:23;;;;;;;218.90;115.03;;;14.30;99.90;;;;;;5010153;28;20622;-51
2022/10/03 09:56:18;;;;;;;202.83;147.37;;;14.20;99.90;;;;;;5010780;28;20290;-51
2022/10/03 09:59:06;;;;;;;111.10;57.80;;;14.10;99.90;;;;;;5010371;28;20407;-51
2022/10/03 10:01:40;;;;;;;186.63;126.07;;;14.10;99.90;;;;;;5010783;28;20298;-51
2022/10/03 10:04:33;;;;;;;119.50;64.77;;;14.20;99.90;;;;;;5010098;28;20199;-51
2022/10/03 10:08:05;;;;;;;216.07;121.20;;;14.30;99.90;;;;;;5018464;28;20199;-51
2022/10/03 10:10:54;;;;;;;256.50;148.40;;;14.70;99.90;;;;;;5005777;28;20222;-51
2022/10/03 10:13:45;;;;;;;251.32;163.20;;;15.00;99.90;;;;;;5009313;28;20229;-51
2022/10/03 10:16:50;;;;;;;304.47;221.07;;;15.10;99.90;;;;;;5002456;28;20668;-51
2022/10/03 10:19:41;;;;;;;357.50;241.23;;;15.10;99.90;;;;;;4999943;28;20712;-51
2022/10/03 10:22:51;;;;;;;440.97;258.43;;;15.10;99.90;;;;;;5002772;28;20368;-51
2022/10/03 10:26:08;;;;;;;222.97;127.63;;;15.10;99.90;;;;;;5009555;28;20779;-51
2022/10/03 10:29:08;;;;;;;214.23;125.85;;;15.40;99.90;;;;;;4985436;28;20273;-51
2022/10/03 10:32:16;;;;;;;250.20;161.18;;;15.60;99.90;;;;;;4991866;28;20657;-51
2022/10/03 10:35:18;;;;;;;372.70;267.80;;;15.70;99.90;;;;;;4961605;28;20215;-52
2022/10/03 10:38:29;;;;;;;299.67;206.13;;;15.70;99.90;;;;;;5007951;28;20222;-52
2022/10/03 10:41:41;;;;;;;327.15;203.05;;;15.60;99.90;;;;;;5006016;28;20294;-51
2022/10/03 10:44:48;;;;;;;325.23;195.88;;;15.90;99.90;;;;;;5008297;28;20671;-51
2022/10/03 10:47:55;;;;;;;459.73;317.02;;;16.10;99.90;;;;;;5008195;28;20242;-52
2022/10/03 10:51:04;;;;;;;278.50;202.98;;;16.00;99.90;;;;;;5005593;28;20565;-51
2022/10/03 10:54:05;;;;;;;325.55;225.05;;;15.80;99.90;;;;;;5006242;28;20262;-51
2022/10/03 10:57:08;;;;;;;345.70;233.50;;;15.70;99.90;;;;;;5008885;28;20212;-52
2022/10/03 11:00:16;;;;;;;282.55;178.20;;;15.70;99.90;;;;;;5004462;28;20333;-51
2022/10/03 11:03:21;;;;;;;381.75;301.95;;;15.70;99.90;;;;;;4999649;28;20349;-51
2022/10/03 11:06:27;;;;;;;350.83;278.95;;;15.70;99.90;;;;;;5005542;28;20199;-51
2022/10/03 11:09:30;;;;;;;287.75;202.48;;;15.80;99.90;;;;;;5005398;28;20682;-52
2022/10/03 11:12:45;;;;;;;330.40;231.88;;;16.00;99.90;;;;;;5007323;28;20249;-51
2022/10/03 11:16:05;;;;;;;311.67;218.63;;;16.10;99.90;;;;;;5008208;28;20215;-52
2022/10/03 11:19:22;;;;;;;355.88;286.88;;;16.10;99.90;;;;;;4946002;29;20248;-51
2022/10/03 11:22:44;;;;;;;262.73;200.73;;;15.90;99.90;;;;;;4943761;29;20324;-51
2022/10/03 11:25:50;;;;;;;288.67;195.85;;;15.90;99.90;;;;;;5008076;28;20338;-51
2022/10/03 11:28:51;;;;;;;295.08;196.73;;;15.90;99.90;;;;;;5003573;28;20309;-52
2022/10/03 11:32:09;;;;;;;324.05;231.65;;;15.90;99.90;;;;;;5002258;28;20206;-51
2022/10/03 11:35:25;;;;;;;362.92;320.83;;;15.90;99.90;;;;;;5005648;28;20226;-52
2022/10/03 11:38:01;;;;;;;240.40;156.63;;;15.90;99.90;;;;;;5007568;28;20726;-52
2022/10/03 11:40:46;;;;;;;290.55;191.00;;;15.90;99.90;;;;;;5004361;28;20241;-51
2022/10/03 11:43:57;;;;;;;368.00;277.10;;;16.10;99.90;;;;;;5008620;28;20248;-51
2022/10/03 11:46:49;;;;;;;291.00;231.93;;;16.30;99.90;;;;;;5000043;28;20680;-52
2022/10/03 11:49:43;;;;;;;274.67;229.02;;;16.40;99.90;;;;;;5011233;28;20314;-51
2022/10/03 11:52:27;;;;;;;326.27;290.80;;;16.40;99.90;;;;;;5008686;28;20808;-51
2022/10/03 11:55:08;;;;;;;407.17;294.50;;;16.50;99.90;;;;;;5011541;28;20286;-51
2022/10/03 11:57:39;;;;;;;329.40;287.95;;;16.50;99.90;;;;;;5006271;28;20314;-52
2022/10/03 12:00:15;;;;;;;295.55;203.32;;;16.50;99.90;;;;;;5011387;28;20846;-52
2022/10/03 12:03:09;;;;;;;551.65;409.45;;;16.60;99.90;;;;;;5011265;28;20280;-51
2022/10/03 12:05:52;;;;;;;400.10;328.73;;;16.50;99.90;;;;;;5010219;28;20230;-51
2022/10/03 12:11:22;;;;;;;313.00;227.13;;;16.40;99.90;;;;;;5010354;28;20246;-51
2022/10/03 12:14:05;;;;;;;341.42;301.98;;;16.30;99.90;;;;;;5010067;28;20217;-51
2022/10/03 12:16:56;;;;;;;342.83;269.77;;;16.20;99.90;;;;;;5011085;28;20631;-52
2022/10/03 12:19:31;;;;;;;244.50;204.63;;;16.20;99.90;;;;;;5007753;28;20238;-50
2022/10/03 12:22:12;;;;;;;339.15;256.40;;;16.20;99.90;;;;;;5010317;28;20281;-52
2022/10/03 12:24:43;;;;;;;310.30;229.18;;;16.30;99.90;;;;;;5011130;28;20651;-51
2022/10/03 12:27:29;;;;;;;367.48;240.68;;;16.30;99.90;;;;;;5009810;28;20318;-52
2022/10/03 12:30:01;;;;;;;343.83;234.80;;;16.40;99.90;;;;;;5010159;28;20286;-51
2022/10/03 12:32:43;;;;;;;406.83;279.38;;;16.70;99.90;;;;;;5007727;28;20686;-52
2022/10/03 12:35:31;;;;;;;321.90;244.25;;;16.80;99.90;;;;;;5001722;28;20283;-52
2022/10/03 12:38:18;;;;;;;294.67;225.48;;;16.70;99.90;;;;;;5005465;28;20209;-52
2022/10/03 12:40:55;;;;;;;416.88;276.52;;;16.70;99.90;;;;;;5011135;28;20203;-51
2022/10/03 12:43:43;;;;;;;367.48;279.40;;;16.60;99.90;;;;;;5008729;28;20226;-51
2022/10/03 12:46:16;;;;;;;438.52;323.25;;;16.40;99.90;;;;;;5010560;28;20210;-52
2022/10/03 12:48:50;;;;;;;334.30;252.95;;;16.30;99.90;;;;;;5010928;28;20286;-51
2022/10/03 12:51:32;;;;;;;369.00;319.73;;;16.40;99.90;;;;;;5010172;28;20226;-51
2022/10/03 12:54:09;;;;;;;319.10;227.02;;;16.40;99.90;;;;;;5007825;28;20211;-51
2022/10/03 12:56:45;;;;;;;313.02;259.85;;;16.40;99.90;;;;;;5009851;28;20217;-52
2022/10/03 12:59:30;;;;;;;299.80;255.30;;;16.40;99.90;;;;;;5009886;28;20234;-51
2022/10/03 13:02:23;;;;;;;323.45;239.07;;;16.40;99.90;;;;;;5005156;28;20215;-52
2022/10/03 13:05:13;;;;;;;283.27;235.98;;;16.40;99.90;;;;;;5006797;28;20202;-52
2022/10/03 13:07:51;;;;;;;353.67;262.27;;;16.30;99.90;;;;;;5009624;28;20753;-52
2022/10/03 13:10:30;;;;;;;294.35;240.75;;;16.20;99.90;;;;;;5006327;28;21172;-51
2022/10/03 13:13:16;;;;;;;280.40;222.43;;;16.20;99.90;;;;;;5007981;28;20233;-52
2022/10/03 13:16:02;;;;;;;287.65;205.93;;;16.10;99.90;;;;;;5006616;28;20213;-52
2022/10/03 13:18:47;;;;;;;225.88;168.02;;;16.20;99.90;;;;;;5007985;28;20627;-51
2022/10/03 13:21:20;;;;;;;281.52;196.23;;;16.20;99.90;;;;;;5009645;28;20299;-52
2022/10/03 13:24:21;;;;;;;220.75;197.55;;;16.20;99.90;;;;;;5008930;28;20711;-51
2022/10/03 13:26:55;;;;;;;274.75;231.43;;;16.30;99.90;;;;;;5008937;28;20277;-52
2022/10/03 13:29:33;;;;;;;231.85;149.52;;;16.30;99.90;;;;;;5006523;28;20294;-52
2022/10/03 13:32:18;;;;;;;298.17;214.27;;;16.40;99.90;;;;;;5008154;28;20804;-52
2022/10/03 13:38:27;;;;;;;281.10;251.10;;;16.50;99.90;;;;;;5005922;28;20314;-52
2022/10/03 13:41:02;;;;;;;282.90;164.50;;;16.50;99.90;;;;;;5008965;28;20218;-50
2022/10/03 13:43:35;;;;;;;433.05;314.83;;;16.60;99.90;;;;;;5007878;28;20305;-52
2022/10/03 13:46:10;;;;;;;256.45;179.70;;;16.70;99.90;;;;;;5008482;28;20402;-52
2022/10/03 13:48:44;;;;;;;243.82;194.95;;;16.80;99.90;;;;;;5007353;28;20198;-52
2022/10/03 13:51:21;;;;;;;400.08;356.35;;;16.80;99.90;;;;;;5007399;28;20298;-52
2022/10/03 13:54:00;;;;;;;395.83;343.30;;;16.70;99.90;;;;;;5007981;28;20290;-52
2022/10/03 13:56:41;;;;;;;288.73;169.98;;;16.60;99.90;;;;;;5009368;28;20209;-51
2022/10/03 13:59:23;;;;;;;341.92;230.52;;;16.50;99.90;;;;;;5005970;28;20219;-51
2022/10/03 14:01:59;;;;;;;311.10;222.82;;;16.40;99.90;;;;;;5004912;28;20346;-51
2022/10/03 14:04:54;;;;;;;327.98;209.65;;;16.30;99.90;;;;;;5009589;28;20297;-51
2022/10/03 14:07:32;;;;;;;261.63;189.00;;;16.30;99.90;;;;;;4993200;28;20207;-52
2022/10/03 14:10:20;;;;;;;381.00;213.75;;;16.30;99.90;;;;;;5000170;28;20203;-52
2022/10/03 14:13:04;;;;;;;302.73;210.65;;;16.20;99.90;;;;;;5004762;28;20223;-52
2022/10/03 14:15:42;;;;;;;350.08;200.77;;;16.20;99.90;;;;;;5005204;28;20681;-52
2022/10/03 14:18:32;;;;;;;343.45;194.77;;;16.20;99.90;;;;;;5004475;28;20297;-52
2022/10/03 14:21:40;;;;;;;262.00;180.88;;;16.30;99.90;;;;;;5006104;28;21396;-52
2022/10/03 14:24:41;;;;;;;364.70;224.90;;;16.30;99.90;;;;;;5003889;28;21078;-52
2022/10/03 14:27:44;;;;;;;378.48;264.73;;;16.20;99.90;;;;;;5006653;28;20689;-51
2022/10/03 14:30:15;;;;;;;298.48;225.13;;;16.20;99.90;;;;;;5008724;28;20207;-51
2022/10/03 14:32:55;;;;;;;301.50;241.68;;;16.10;99.90;;;;;;5008347;28;20317;-53
2022/10/03 14:35:36;;;;;;;272.15;174.60;;;16.10;99.90;;;;;;4998557;28;20229;-52
2022/10/03 14:38:59;;;;;;;265.17;190.10;;;16.00;99.90;;;;;;4999930;28;20209;-52